La rose des vents
Donnes mto: Semaine 06/08/07 - 12/08/07 (S 32)
Date Horaire Temp. E. Hum. E. P.atmo. Pluie Vent 1mn Direction Ensoleilleme Ev.Tr. Solaire P. de rose Temp au vent Rafales
06/08/2007 00:00 20,8 C 77 % 1012,4 hPa 0,0 l/m 1,3 km/h (1 Bft) NO 0,00 h 0,025 mm 0 W/m 16,5 C 20,8 C 3,2 km/h (1 Bft)
06/08/2007 01:00 20,6 C 75 % 1012,0 hPa 0,0 l/m 0,3 km/h (0 Bft) NO 0,00 h 0,025 mm 0 W/m 15,9 C 20,6 C 0,7 km/h (0 Bft)
06/08/2007 02:00 20,5 C 71 % 1011,9 hPa 0,0 l/m 3,3 km/h (1 Bft) N-NE 0,00 h 0,025 mm 0 W/m 15,0 C 20,5 C 5,8 km/h (2 Bft)
06/08/2007 03:00 20,1 C 70 % 1012,3 hPa 0,0 l/m 1,1 km/h (0 Bft) N 0,00 h 0,051 mm 0 W/m 14,5 C 20,1 C 3,3 km/h (1 Bft)
06/08/2007 04:00 20,2 C 72 % 1012,0 hPa 0,0 l/m 0,4 km/h (0 Bft) N 0,00 h 0,025 mm 0 W/m 15,0 C 20,2 C 1,4 km/h (1 Bft)
06/08/2007 05:00 20,9 C 68 % 1011,9 hPa 0,0 l/m 0,2 km/h (0 Bft) N 0,00 h 0,025 mm 0 W/m 14,9 C 20,9 C 0,9 km/h (0 Bft)
06/08/2007 06:00 20,0 C 71 % 1011,6 hPa 0,0 l/m 0,9 km/h (0 Bft) N 0,02 h 0,025 mm 15 W/m 14,6 C 20,0 C 1,9 km/h (1 Bft)
06/08/2007 07:00 21,3 C 73 % 1011,7 hPa 0,0 l/m 0,6 km/h (0 Bft) N 0,23 h 0,025 mm 93 W/m 16,2 C 21,3 C 2,2 km/h (1 Bft)
06/08/2007 08:00 23,3 C 72 % 1011,9 hPa 0,0 l/m 1,6 km/h (1 Bft) N-NE 0,22 h 0,076 mm 165 W/m 18,0 C 23,3 C 3,2 km/h (1 Bft)
06/08/2007 09:00 24,4 C 66 % 1012,0 hPa 0,0 l/m 2,2 km/h (1 Bft) NE 0,32 h 0,102 mm 292 W/m 17,7 C 24,4 C 4,7 km/h (1 Bft)
06/08/2007 10:00 26,6 C 57 % 1011,5 hPa 0,0 l/m 5,9 km/h (2 Bft) E 1,00 h 0,203 mm 572 W/m 17,3 C 26,6 C 9,9 km/h (2 Bft)
06/08/2007 11:00 27,8 C 50 % 1011,5 hPa 0,0 l/m 8,9 km/h (2 Bft) E 1,00 h 0,406 mm 694 W/m 16,5 C 27,8 C 13,9 km/h (3 Bft)
06/08/2007 12:00 28,9 C 48 % 1011,5 hPa 0,0 l/m 11,4 km/h (2 Bft) E 1,00 h 0,533 mm 774 W/m 16,7 C 28,9 C 16,7 km/h (3 Bft)
06/08/2007 13:00 29,6 C 43 % 1011,0 hPa 0,0 l/m 10,0 km/h (2 Bft) E 1,00 h 0,610 mm 808 W/m 15,8 C 29,6 C 15,3 km/h (3 Bft)
06/08/2007 14:00 29,1 C 40 % 1010,7 hPa 0,0 l/m 9,4 km/h (2 Bft) S 1,00 h 0,635 mm 774 W/m 13,9 C 29,1 C 14,8 km/h (3 Bft)
06/08/2007 15:00 29,3 C 40 % 1010,4 hPa 0,0 l/m 10,4 km/h (2 Bft) E 1,00 h 0,610 mm 702 W/m 14,2 C 29,3 C 15,8 km/h (3 Bft)
06/08/2007 16:00 28,8 C 48 % 1010,1 hPa 0,0 l/m 10,0 km/h (2 Bft) E 0,83 h 0,584 mm 544 W/m 16,7 C 28,8 C 14,4 km/h (3 Bft)
06/08/2007 17:00 27,1 C 56 % 1009,8 hPa 0,0 l/m 6,5 km/h (2 Bft) E 0,55 h 0,432 mm 356 W/m 17,6 C 27,1 C 10,2 km/h (2 Bft)
06/08/2007 18:00 25,4 C 64 % 1009,7 hPa 0,0 l/m 5,0 km/h (1 Bft) S 0,00 h 0,279 mm 127 W/m 18,0 C 25,4 C 7,7 km/h (2 Bft)
06/08/2007 19:00 24,7 C 66 % 1009,3 hPa 0,0 l/m 0,7 km/h (0 Bft) SE 0,00 h 0,127 mm 61 W/m 17,9 C 24,7 C 2,1 km/h (1 Bft)
06/08/2007 20:00 24,0 C 72 % 1009,0 hPa 0,0 l/m 1,6 km/h (1 Bft) E-SE 0,05 h 0,051 mm 22 W/m 18,6 C 24,0 C 3,4 km/h (1 Bft)
06/08/2007 21:00 22,8 C 78 % 1009,1 hPa 0,0 l/m 0,1 km/h (0 Bft) E-NE 0,00 h 0,025 mm 0 W/m 18,8 C 22,8 C 0,4 km/h (0 Bft)
06/08/2007 22:00 22,2 C 80 % 1009,5 hPa 0,0 l/m 0,0 km/h (0 Bft) N 0,00 h 0,000 mm 0 W/m 18,6 C 22,2 C 0,1 km/h (0 Bft)
06/08/2007 23:00 22,1 C 81 % 1009,4 hPa 0,0 l/m 0,1 km/h (0 Bft) E-NE 0,00 h 0,025 mm 0 W/m 18,6 C 22,1 C 0,5 km/h (0 Bft)
07/08/2007 00:00 21,9 C 81 % 1009,2 hPa 0,0 l/m 0,6 km/h (0 Bft) E-NE 0,00 h 0,025 mm 0 W/m 18,5 C 21,9 C 1,3 km/h (1 Bft)
07/08/2007 01:00 21,9 C 81 % 1008,5 hPa 0,0 l/m 0,8 km/h (0 Bft) N-NE 0,00 h 0,025 mm 0 W/m 18,4 C 21,9 C 1,8 km/h (1 Bft)
07/08/2007 02:00 22,0 C 78 % 1008,0 hPa 0,0 l/m 4,0 km/h (1 Bft) O-SO 0,00 h 0,025 mm 0 W/m 18,0 C 22,0 C 5,8 km/h (2 Bft)
07/08/2007 03:00 22,1 C 76 % 1008,0 hPa 0,0 l/m 1,8 km/h (1 Bft) O 0,00 h 0,025 mm 0 W/m 17,7 C 22,1 C 2,8 km/h (1 Bft)
07/08/2007 04:00 21,3 C 78 % 1008,4 hPa 0,0 l/m 0,7 km/h (0 Bft) O-NO 0,00 h 0,025 mm 0 W/m 17,3 C 21,3 C 1,6 km/h (1 Bft)
07/08/2007 05:00 20,8 C 78 % 1008,2 hPa 0,0 l/m 1,0 km/h (0 Bft) N-NE 0,00 h 0,025 mm 0 W/m 16,9 C 20,8 C 2,4 km/h (1 Bft)
07/08/2007 06:00 20,8 C 78 % 1008,2 hPa 0,0 l/m 0,3 km/h (0 Bft) N-NE 0,00 h 0,025 mm 19 W/m 16,8 C 20,8 C 1,3 km/h (1 Bft)
07/08/2007 07:00 21,4 C 78 % 1008,9 hPa 0,0 l/m 2,3 km/h (1 Bft) N-NE 0,12 h 0,025 mm 76 W/m 17,4 C 21,4 C 3,7 km/h (1 Bft)
07/08/2007 08:00 22,9 C 77 % 1009,1 hPa 0,0 l/m 0,7 km/h (0 Bft) E-SE 0,03 h 0,051 mm 122 W/m 18,6 C 22,9 C 1,8 km/h (1 Bft)
07/08/2007 09:00 24,1 C 73 % 1009,3 hPa 0,0 l/m 2,4 km/h (1 Bft) E 0,20 h 0,076 mm 272 W/m 19,1 C 24,1 C 4,5 km/h (1 Bft)
07/08/2007 10:00 26,1 C 65 % 1009,3 hPa 0,0 l/m 7,4 km/h (2 Bft) E-NE 0,42 h 0,178 mm 359 W/m 19,0 C 26,1 C 11,6 km/h (2 Bft)
07/08/2007 11:00 25,2 C 73 % 1009,5 hPa 0,0 l/m 7,2 km/h (2 Bft) E 0,00 h 0,305 mm 243 W/m 20,0 C 25,2 C 12,0 km/h (2 Bft)
07/08/2007 12:00 26,7 C 68 % 1009,6 hPa 0,0 l/m 7,9 km/h (2 Bft) E 0,60 h 0,203 mm 624 W/m 20,1 C 26,7 C 12,6 km/h (3 Bft)
07/08/2007 13:00 27,9 C 63 % 1009,2 hPa 0,0 l/m 11,1 km/h (2 Bft) E 0,63 h 0,457 mm 627 W/m 20,2 C 27,9 C 17,6 km/h (3 Bft)
07/08/2007 14:00 27,7 C 59 % 1009,1 hPa 0,0 l/m 10,8 km/h (2 Bft) E 1,00 h 0,508 mm 795 W/m 18,9 C 27,7 C 17,3 km/h (3 Bft)
07/08/2007 15:00 27,4 C 58 % 1009,2 hPa 0,0 l/m 10,0 km/h (2 Bft) E 0,53 h 0,584 mm 500 W/m 18,4 C 27,4 C 15,8 km/h (3 Bft)
07/08/2007 16:00 25,1 C 71 % 1009,4 hPa 0,0 l/m 6,7 km/h (2 Bft) S 0,02 h 0,381 mm 191 W/m 19,5 C 25,1 C 10,1 km/h (2 Bft)
07/08/2007 17:00 25,7 C 73 % 1008,9 hPa 0,0 l/m 5,6 km/h (1 Bft) S-SE 0,55 h 0,152 mm 320 W/m 20,4 C 25,7 C 9,1 km/h (2 Bft)
07/08/2007 18:00 26,2 C 72 % 1008,4 hPa 0,0 l/m 5,7 km/h (1 Bft) E 0,48 h 0,229 mm 208 W/m 20,6 C 26,2 C 8,8 km/h (2 Bft)
07/08/2007 19:00 24,6 C 80 % 1008,1 hPa 0,0 l/m 2,9 km/h (1 Bft) E-SE 0,18 h 0,178 mm 95 W/m 21,0 C 24,6 C 5,2 km/h (1 Bft)
07/08/2007 20:00 23,3 C 85 % 1008,2 hPa 0,0 l/m 4,9 km/h (1 Bft) S-SO 0,00 h 0,076 mm 13 W/m 20,7 C 23,3 C 7,0 km/h (2 Bft)
07/08/2007 21:00 22,5 C 88 % 1008,4 hPa 0,0 l/m 1,2 km/h (1 Bft) S 0,00 h 0,025 mm 0 W/m 20,5 C 22,5 C 2,3 km/h (1 Bft)
07/08/2007 22:00 22,1 C 90 % 1008,5 hPa 0,0 l/m 2,2 km/h (1 Bft) S 0,00 h 0,000 mm 0 W/m 20,4 C 22,1 C 3,5 km/h (1 Bft)
07/08/2007 23:00 21,5 C 91 % 1008,5 hPa 0,0 l/m 0,0 km/h (0 Bft) SO 0,00 h 0,025 mm 0 W/m 20,1 C 21,5 C 0,2 km/h (0 Bft)
08/08/2007 00:00 21,4 C 92 % 1008,3 hPa 0,0 l/m 0,0 km/h (0 Bft) N 0,00 h 0,025 mm 0 W/m 20,0 C 21,4 C 0,1 km/h (0 Bft)
08/08/2007 01:00 21,5 C 93 % 1008,0 hPa 0,0 l/m 0,1 km/h (0 Bft) SO 0,00 h 0,025 mm 0 W/m 20,2 C 21,5 C 0,4 km/h (0 Bft)
08/08/2007 02:00 21,5 C 93 % 1007,8 hPa 0,0 l/m 0,5 km/h (0 Bft) SO 0,00 h 0,025 mm 0 W/m 20,3 C 21,5 C 1,0 km/h (0 Bft)
08/08/2007 03:00 21,4 C 93 % 1007,4 hPa 0,0 l/m 1,1 km/h (0 Bft) SO 0,00 h 0,025 mm 0 W/m 20,2 C 21,4 C 1,5 km/h (1 Bft)
08/08/2007 04:00 20,6 C 92 % 1007,3 hPa 0,0 l/m 2,1 km/h (1 Bft) SO 0,00 h 0,025 mm 0 W/m 19,3 C 20,6 C 3,3 km/h (1 Bft)
08/08/2007 05:00 20,0 C 90 % 1007,1 hPa 0,0 l/m 1,5 km/h (1 Bft) O-NO 0,00 h 0,025 mm 0 W/m 18,3 C 20,0 C 2,9 km/h (1 Bft)
08/08/2007 06:00 19,6 C 86 % 1006,9 hPa 0,0 l/m 2,7 km/h (1 Bft) NO 0,08 h 0,025 mm 20 W/m 17,2 C 19,6 C 4,8 km/h (1 Bft)
08/08/2007 07:00 20,8 C 84 % 1006,6 hPa 0,0 l/m 0,6 km/h (0 Bft) NO 0,22 h 0,025 mm 86 W/m 18,1 C 20,8 C 1,3 km/h (1 Bft)
08/08/2007 08:00 23,3 C 75 % 1006,5 hPa 0,0 l/m 1,7 km/h (1 Bft) E 0,75 h 0,051 mm 236 W/m 18,6 C 23,3 C 3,6 km/h (1 Bft)
08/08/2007 09:00 24,5 C 73 % 1006,5 hPa 0,0 l/m 3,4 km/h (1 Bft) S-SE 0,83 h 0,152 mm 395 W/m 19,2 C 24,5 C 5,6 km/h (1 Bft)
08/08/2007 10:00 26,9 C 60 % 1006,7 hPa 0,0 l/m 6,6 km/h (2 Bft) E 0,73 h 0,254 mm 518 W/m 18,4 C 26,9 C 11,1 km/h (2 Bft)
08/08/2007 11:00 25,2 C 69 % 1007,1 hPa 0,0 l/m 9,8 km/h (2 Bft) E 0,17 h 0,381 mm 351 W/m 19,2 C 25,2 C 14,9 km/h (3 Bft)
08/08/2007 12:00 24,6 C 65 % 1007,1 hPa 0,0 l/m 13,7 km/h (3 Bft) SO 0,05 h 0,279 mm 273 W/m 17,6 C 24,6 C 18,9 km/h (3 Bft)
08/08/2007 13:00 24,7 C 56 % 1007,0 hPa 0,0 l/m 13,4 km/h (3 Bft) S-SO 0,00 h 0,254 mm 147 W/m 15,2 C 24,7 C 18,9 km/h (3 Bft)
08/08/2007 14:00 24,4 C 52 % 1006,9 hPa 0,0 l/m 10,3 km/h (2 Bft) O-SO 0,07 h 0,203 mm 265 W/m 13,9 C 24,4 C 14,7 km/h (3 Bft)
08/08/2007 15:00 28,0 C 36 % 1005,7 hPa 0,0 l/m 17,7 km/h (3 Bft) SO 0,88 h 0,279 mm 816 W/m 11,4 C 28,0 C 24,7 km/h (4 Bft)
08/08/2007 16:00 27,6 C 33 % 1005,1 hPa 0,0 l/m 21,7 km/h (4 Bft) SO 0,73 h 0,711 mm 562 W/m 9,7 C 27,6 C 28,8 km/h (5 Bft)
08/08/2007 17:00 26,9 C 29 % 1004,8 hPa 0,0 l/m 31,6 km/h (5 Bft) SO 1,00 h 0,610 mm 491 W/m 7,3 C 26,9 C 42,0 km/h (6 Bft)
08/08/2007 18:00 26,5 C 28 % 1004,7 hPa 0,0 l/m 24,9 km/h (4 Bft) O-SO 1,00 h 0,686 mm 318 W/m 6,4 C 26,5 C 34,4 km/h (5 Bft)
08/08/2007 19:00 24,8 C 30 % 1005,0 hPa 0,0 l/m 20,2 km/h (4 Bft) O-NO 0,93 h 0,508 mm 159 W/m 6,1 C 24,8 C 29,3 km/h (5 Bft)
08/08/2007 20:00 22,4 C 34 % 1005,0 hPa 0,0 l/m 20,7 km/h (4 Bft) O 0,02 h 0,330 mm 17 W/m 5,6 C 22,4 C 29,0 km/h (5 Bft)
08/08/2007 21:00 21,2 C 38 % 1004,9 hPa 0,0 l/m 24,2 km/h (4 Bft) O-SO 0,00 h 0,229 mm 0 W/m 6,2 C 21,2 C 32,4 km/h (5 Bft)
08/08/2007 22:00 20,5 C 41 % 1004,9 hPa 0,0 l/m 19,7 km/h (3 Bft) O 0,00 h 0,229 mm 0 W/m 6,8 C 20,5 C 28,3 km/h (4 Bft)
08/08/2007 23:00 19,9 C 41 % 1005,1 hPa 0,0 l/m 16,5 km/h (3 Bft) O 0,00 h 0,178 mm 0 W/m 6,2 C 19,9 C 23,6 km/h (4 Bft)
09/08/2007 00:00 19,8 C 38 % 1005,1 hPa 0,0 l/m 14,2 km/h (3 Bft) O 0,00 h 0,152 mm 0 W/m 5,2 C 19,8 C 20,9 km/h (4 Bft)
09/08/2007 01:00 18,4 C 43 % 1005,3 hPa 0,0 l/m 4,2 km/h (1 Bft) N 0,00 h 0,152 mm 0 W/m 5,5 C 18,4 C 6,4 km/h (2 Bft)
09/08/2007 02:00 17,7 C 44 % 1005,2 hPa 0,0 l/m 4,1 km/h (1 Bft) SO 0,00 h 0,076 mm 0 W/m 5,3 C 17,7 C 6,2 km/h (2 Bft)
09/08/2007 03:00 16,4 C 48 % 1005,3 hPa 0,0 l/m 1,1 km/h (1 Bft) O 0,00 h 0,076 mm 0 W/m 5,3 C 16,4 C 2,0 km/h (1 Bft)
09/08/2007 04:00 16,1 C 48 % 1005,0 hPa 0,0 l/m 2,4 km/h (1 Bft) N 0,00 h 0,051 mm 0 W/m 5,2 C 16,1 C 3,9 km/h (1 Bft)
09/08/2007 05:00 16,6 C 46 % 1005,0 hPa 0,0 l/m 6,3 km/h (2 Bft) S 0,00 h 0,051 mm 0 W/m 5,0 C 16,6 C 7,7 km/h (2 Bft)
09/08/2007 06:00 15,9 C 49 % 1005,2 hPa 0,0 l/m 5,8 km/h (2 Bft) O-SO 0,02 h 0,076 mm 10 W/m 5,1 C 15,9 C 7,8 km/h (2 Bft)
09/08/2007 07:00 16,6 C 48 % 1005,6 hPa 0,0 l/m 2,5 km/h (1 Bft) O 0,23 h 0,051 mm 61 W/m 5,6 C 16,6 C 4,1 km/h (1 Bft)
09/08/2007 08:00 19,9 C 40 % 1005,8 hPa 0,0 l/m 2,1 km/h (1 Bft) E 1,00 h 0,051 mm 277 W/m 5,8 C 19,9 C 4,0 km/h (1 Bft)
09/08/2007 09:00 22,0 C 36 % 1006,0 hPa 0,0 l/m 1,9 km/h (1 Bft) E 1,00 h 0,178 mm 445 W/m 6,3 C 22,0 C 3,8 km/h (1 Bft)
09/08/2007 10:00 24,2 C 34 % 1006,3 hPa 0,0 l/m 6,7 km/h (2 Bft) E 1,00 h 0,305 mm 597 W/m 7,3 C 24,2 C 10,8 km/h (2 Bft)
09/08/2007 11:00 24,9 C 43 % 1006,3 hPa 0,0 l/m 8,6 km/h (2 Bft) E 1,00 h 0,457 mm 712 W/m 11,3 C 24,9 C 15,2 km/h (3 Bft)
09/08/2007 12:00 25,0 C 44 % 1006,5 hPa 0,0 l/m 12,1 km/h (2 Bft) E 1,00 h 0,533 mm 794 W/m 11,8 C 25,0 C 18,3 km/h (3 Bft)
09/08/2007 13:00 25,5 C 44 % 1006,3 hPa 0,0 l/m 11,3 km/h (2 Bft) E 1,00 h 0,610 mm 828 W/m 12,3 C 25,5 C 17,8 km/h (3 Bft)
09/08/2007 14:00 25,6 C 41 % 1006,3 hPa 0,0 l/m 13,2 km/h (3 Bft) E 1,00 h 0,635 mm 808 W/m 11,5 C 25,6 C 19,4 km/h (3 Bft)
09/08/2007 15:00 25,3 C 45 % 1006,1 hPa 0,0 l/m 11,1 km/h (2 Bft) E 1,00 h 0,635 mm 738 W/m 12,5 C 25,3 C 17,6 km/h (3 Bft)
09/08/2007 16:00 24,7 C 53 % 1005,8 hPa 0,0 l/m 11,6 km/h (2 Bft) E 1,00 h 0,559 mm 623 W/m 14,5 C 24,7 C 17,8 km/h (3 Bft)
09/08/2007 17:00 24,1 C 56 % 1005,6 hPa 0,0 l/m 11,5 km/h (2 Bft) E 1,00 h 0,483 mm 476 W/m 14,7 C 24,1 C 16,7 km/h (3 Bft)
09/08/2007 18:00 24,1 C 49 % 1005,2 hPa 0,0 l/m 10,0 km/h (2 Bft) E-NE 1,00 h 0,381 mm 311 W/m 12,7 C 24,1 C 15,1 km/h (3 Bft)
09/08/2007 19:00 23,5 C 45 % 1004,9 hPa 0,0 l/m 6,9 km/h (2 Bft) E-NE 0,90 h 0,279 mm 142 W/m 10,8 C 23,5 C 10,1 km/h (2 Bft)
09/08/2007 20:00 21,4 C 49 % 1004,5 hPa 0,0 l/m 3,4 km/h (1 Bft) E 0,00 h 0,152 mm 15 W/m 10,3 C 21,4 C 5,3 km/h (1 Bft)
09/08/2007 21:00 20,4 C 58 % 1004,6 hPa 0,0 l/m 5,9 km/h (2 Bft) S-SO 0,00 h 0,051 mm 0 W/m 11,9 C 20,4 C 7,5 km/h (2 Bft)
09/08/2007 22:00 19,6 C 63 % 1004,6 hPa 0,0 l/m 4,8 km/h (1 Bft) O 0,00 h 0,051 mm 0 W/m 12,3 C 19,6 C 6,7 km/h (2 Bft)
09/08/2007 23:00 18,9 C 60 % 1004,5 hPa 0,0 l/m 8,8 km/h (2 Bft) O 0,00 h 0,051 mm 0 W/m 10,8 C 18,9 C 12,5 km/h (3 Bft)
10/08/2007 00:00 18,8 C 52 % 1004,1 hPa 0,0 l/m 3,6 km/h (1 Bft) O-NO 0,00 h 0,076 mm 0 W/m 8,8 C 18,8 C 5,6 km/h (1 Bft)
10/08/2007 01:00 19,1 C 52 % 1004,0 hPa 0,0 l/m 3,3 km/h (1 Bft) SO 0,00 h 0,051 mm 0 W/m 9,0 C 19,1 C 4,5 km/h (1 Bft)
10/08/2007 02:00 18,2 C 52 % 1004,2 hPa 0,0 l/m 9,8 km/h (2 Bft) O 0,00 h 0,051 mm 0 W/m 8,1 C 18,2 C 13,9 km/h (3 Bft)
10/08/2007 03:00 17,3 C 54 % 1004,3 hPa 0,0 l/m 2,3 km/h (1 Bft) O 0,00 h 0,102 mm 0 W/m 8,0 C 17,3 C 3,7 km/h (1 Bft)
10/08/2007 04:00 17,2 C 58 % 1004,2 hPa 0,0 l/m 4,3 km/h (1 Bft) O 0,00 h 0,051 mm 0 W/m 8,9 C 17,2 C 6,1 km/h (2 Bft)
10/08/2007 05:00 17,0 C 61 % 1004,1 hPa 0,0 l/m 7,7 km/h (2 Bft) O 0,00 h 0,051 mm 0 W/m 9,3 C 17,0 C 10,3 km/h (2 Bft)
10/08/2007 06:00 17,2 C 59 % 1004,5 hPa 0,0 l/m 6,7 km/h (2 Bft) NO 0,00 h 0,076 mm 12 W/m 9,2 C 17,2 C 9,4 km/h (2 Bft)
10/08/2007 07:00 17,0 C 59 % 1005,2 hPa 0,0 l/m 4,7 km/h (1 Bft) NO 0,00 h 0,051 mm 29 W/m 8,9 C 17,0 C 7,5 km/h (2 Bft)
10/08/2007 08:00 18,4 C 55 % 1005,6 hPa 0,0 l/m 0,9 km/h (0 Bft) O 0,15 h 0,051 mm 147 W/m 9,3 C 18,4 C 2,2 km/h (1 Bft)
10/08/2007 09:00 21,9 C 44 % 1006,3 hPa 0,0 l/m 5,0 km/h (1 Bft) S 1,00 h 0,102 mm 422 W/m 9,2 C 21,9 C 7,7 km/h (2 Bft)
10/08/2007 10:00 23,7 C 42 % 1006,6 hPa 0,0 l/m 10,7 km/h (2 Bft) S 1,00 h 0,305 mm 588 W/m 10,1 C 23,7 C 15,8 km/h (3 Bft)
10/08/2007 11:00 23,7 C 46 % 1006,9 hPa 0,0 l/m 15,6 km/h (3 Bft) S 1,00 h 0,457 mm 707 W/m 11,2 C 23,7 C 22,3 km/h (4 Bft)
10/08/2007 12:00 24,2 C 48 % 1006,7 hPa 0,0 l/m 12,8 km/h (3 Bft) S-SE 1,00 h 0,559 mm 789 W/m 12,4 C 24,2 C 19,9 km/h (4 Bft)
10/08/2007 13:00 24,8 C 46 % 1006,4 hPa 0,0 l/m 14,0 km/h (3 Bft) S 1,00 h 0,584 mm 817 W/m 12,5 C 24,8 C 20,6 km/h (4 Bft)
10/08/2007 14:00 24,9 C 44 % 1006,3 hPa 0,0 l/m 15,6 km/h (3 Bft) S-SE 1,00 h 0,635 mm 799 W/m 11,9 C 24,9 C 22,1 km/h (4 Bft)
10/08/2007 15:00 25,1 C 43 % 1006,2 hPa 0,0 l/m 15,9 km/h (3 Bft) S 0,97 h 0,635 mm 738 W/m 11,6 C 25,1 C 22,5 km/h (4 Bft)
10/08/2007 16:00 25,5 C 39 % 1005,9 hPa 0,0 l/m 16,7 km/h (3 Bft) S 1,00 h 0,610 mm 626 W/m 10,5 C 25,5 C 23,3 km/h (4 Bft)
10/08/2007 17:00 25,2 C 38 % 1005,6 hPa 0,0 l/m 19,1 km/h (3 Bft) S 1,00 h 0,559 mm 479 W/m 9,8 C 25,2 C 25,5 km/h (4 Bft)
10/08/2007 18:00 24,1 C 41 % 1005,7 hPa 0,0 l/m 13,6 km/h (3 Bft) S 0,55 h 0,483 mm 222 W/m 9,9 C 24,1 C 18,8 km/h (3 Bft)
10/08/2007 19:00 24,1 C 43 % 1005,7 hPa 0,0 l/m 2,0 km/h (1 Bft) S 0,68 h 0,254 mm 129 W/m 10,9 C 24,1 C 4,0 km/h (1 Bft)
10/08/2007 20:00 21,5 C 54 % 1006,0 hPa 0,0 l/m 1,0 km/h (0 Bft) E-SE 0,02 h 0,102 mm 15 W/m 11,8 C 21,5 C 2,5 km/h (1 Bft)
10/08/2007 21:00 19,9 C 63 % 1006,5 hPa 0,0 l/m 6,4 km/h (2 Bft) N-NE 0,00 h 0,025 mm 0 W/m 12,6 C 19,9 C 9,6 km/h (2 Bft)
10/08/2007 22:00 19,0 C 67 % 1006,9 hPa 0,0 l/m 2,2 km/h (1 Bft) N-NE 0,00 h 0,051 mm 0 W/m 12,7 C 19,0 C 4,1 km/h (1 Bft)
10/08/2007 23:00 18,4 C 66 % 1006,9 hPa 0,0 l/m 1,0 km/h (0 Bft) O-NO 0,00 h 0,051 mm 0 W/m 12,0 C 18,4 C 1,5 km/h (1 Bft)
11/08/2007 00:00 18,2 C 65 % 1006,8 hPa 0,0 l/m 3,2 km/h (1 Bft) SO 0,00 h 0,025 mm 0 W/m 11,6 C 18,2 C 4,5 km/h (1 Bft)
11/08/2007 01:00 17,6 C 64 % 1006,8 hPa 0,0 l/m 1,7 km/h (1 Bft) N-NO 0,00 h 0,051 mm 0 W/m 10,8 C 17,6 C 3,0 km/h (1 Bft)
11/08/2007 02:00 18,1 C 61 % 1006,6 hPa 0,0 l/m 2,7 km/h (1 Bft) N-NO 0,00 h 0,051 mm 0 W/m 10,4 C 18,1 C 4,1 km/h (1 Bft)
11/08/2007 03:00 18,4 C 57 % 1006,4 hPa 0,0 l/m 2,8 km/h (1 Bft) O-NO 0,00 h 0,051 mm 0 W/m 9,8 C 18,4 C 3,9 km/h (1 Bft)
11/08/2007 04:00 18,4 C 56 % 1006,2 hPa 0,0 l/m 3,1 km/h (1 Bft) O-NO 0,00 h 0,051 mm 0 W/m 9,4 C 18,4 C 5,2 km/h (1 Bft)
11/08/2007 05:00 17,6 C 58 % 1006,2 hPa 0,0 l/m 1,5 km/h (1 Bft) NO 0,00 h 0,051 mm 0 W/m 9,2 C 17,6 C 2,6 km/h (1 Bft)
11/08/2007 06:00 17,8 C 57 % 1006,3 hPa 0,0 l/m 3,6 km/h (1 Bft) O 0,00 h 0,051 mm 10 W/m 9,2 C 17,8 C 4,7 km/h (1 Bft)
11/08/2007 07:00 18,3 C 56 % 1006,8 hPa 0,0 l/m 0,6 km/h (0 Bft) O 0,22 h 0,025 mm 59 W/m 9,5 C 18,3 C 1,2 km/h (1 Bft)
11/08/2007 08:00 21,5 C 47 % 1007,1 hPa 0,0 l/m 1,2 km/h (1 Bft) NE 1,00 h 0,051 mm 265 W/m 9,7 C 21,5 C 3,0 km/h (1 Bft)
11/08/2007 09:00 23,8 C 44 % 1007,3 hPa 0,0 l/m 5,1 km/h (1 Bft) E 1,00 h 0,178 mm 436 W/m 10,6 C 23,8 C 8,5 km/h (2 Bft)
11/08/2007 10:00 25,1 C 47 % 1007,7 hPa 0,0 l/m 7,0 km/h (2 Bft) E 1,00 h 0,330 mm 589 W/m 13,0 C 25,1 C 10,9 km/h (2 Bft)
11/08/2007 11:00 25,1 C 59 % 1008,1 hPa 0,0 l/m 8,8 km/h (2 Bft) E 1,00 h 0,432 mm 707 W/m 16,5 C 25,1 C 13,7 km/h (3 Bft)
11/08/2007 12:00 25,5 C 59 % 1008,2 hPa 0,0 l/m 11,0 km/h (2 Bft) E 1,00 h 0,508 mm 787 W/m 16,9 C 25,5 C 16,0 km/h (3 Bft)
11/08/2007 13:00 25,4 C 56 % 1008,3 hPa 0,0 l/m 9,1 km/h (2 Bft) E-SE 1,00 h 0,584 mm 820 W/m 16,1 C 25,4 C 15,2 km/h (3 Bft)
11/08/2007 14:00 25,4 C 58 % 1008,3 hPa 0,0 l/m 9,6 km/h (2 Bft) E 1,00 h 0,584 mm 798 W/m 16,4 C 25,4 C 15,0 km/h (3 Bft)
11/08/2007 15:00 25,7 C 57 % 1008,4 hPa 0,0 l/m 8,1 km/h (2 Bft) E 1,00 h 0,559 mm 725 W/m 16,4 C 25,7 C 12,6 km/h (3 Bft)
11/08/2007 16:00 25,5 C 54 % 1008,2 hPa 0,0 l/m 7,2 km/h (2 Bft) E 1,00 h 0,508 mm 609 W/m 15,4 C 25,5 C 11,7 km/h (2 Bft)
11/08/2007 17:00 24,7 C 60 % 1008,0 hPa 0,0 l/m 6,4 km/h (2 Bft) E 1,00 h 0,432 mm 463 W/m 16,4 C 24,7 C 9,5 km/h (2 Bft)
11/08/2007 18:00 24,2 C 64 % 1007,8 hPa 0,0 l/m 3,9 km/h (1 Bft) E-SE 1,00 h 0,330 mm 297 W/m 17,0 C 24,2 C 6,3 km/h (2 Bft)
11/08/2007 19:00 22,8 C 71 % 1008,1 hPa 0,0 l/m 3,1 km/h (1 Bft) E 0,93 h 0,203 mm 132 W/m 17,3 C 22,8 C 5,5 km/h (1 Bft)
11/08/2007 20:00 20,5 C 80 % 1008,3 hPa 0,0 l/m 0,9 km/h (0 Bft) E 0,02 h 0,102 mm 15 W/m 17,0 C 20,5 C 1,9 km/h (1 Bft)
11/08/2007 21:00 19,2 C 87 % 1008,6 hPa 0,0 l/m 0,2 km/h (0 Bft) E 0,00 h 0,025 mm 0 W/m 17,0 C 19,2 C 0,5 km/h (0 Bft)
11/08/2007 22:00 18,7 C 89 % 1008,8 hPa 0,0 l/m 0,0 km/h (0 Bft) N 0,00 h 0,000 mm 0 W/m 16,9 C 18,7 C 0,0 km/h (0 Bft)
11/08/2007 23:00 18,5 C 89 % 1008,9 hPa 0,0 l/m 3,7 km/h (1 Bft) O 0,00 h 0,025 mm 0 W/m 16,7 C 18,5 C 5,5 km/h (1 Bft)
12/08/2007 00:00 18,0 C 90 % 1008,8 hPa 0,0 l/m 3,0 km/h (1 Bft) O 0,00 h 0,025 mm 0 W/m 16,3 C 18,0 C 4,8 km/h (1 Bft)
12/08/2007 01:00 17,8 C 88 % 1008,8 hPa 0,0 l/m 1,2 km/h (1 Bft) O-NO 0,00 h 0,025 mm 0 W/m 15,8 C 17,8 C 2,2 km/h (1 Bft)
12/08/2007 02:00 17,8 C 86 % 1008,9 hPa 0,0 l/m 0,7 km/h (0 Bft) O 0,00 h 0,025 mm 0 W/m 15,5 C 17,8 C 1,8 km/h (1 Bft)
12/08/2007 03:00 17,2 C 84 % 1008,8 hPa 0,0 l/m 0,7 km/h (0 Bft) O-NO 0,00 h 0,025 mm 0 W/m 14,6 C 17,2 C 2,2 km/h (1 Bft)
12/08/2007 04:00 16,7 C 86 % 1008,8 hPa 0,0 l/m 0,7 km/h (0 Bft) O-NO 0,00 h 0,025 mm 0 W/m 14,4 C 16,7 C 2,0 km/h (1 Bft)
12/08/2007 05:00 16,9 C 88 % 1009,0 hPa 0,0 l/m 1,1 km/h (0 Bft) O-NO 0,00 h 0,025 mm 0 W/m 14,9 C 16,9 C 2,6 km/h (1 Bft)
12/08/2007 06:00 17,0 C 87 % 1009,1 hPa 0,0 l/m 1,5 km/h (1 Bft) O-NO 0,00 h 0,025 mm 12 W/m 14,8 C 17,0 C 3,1 km/h (1 Bft)
12/08/2007 07:00 18,0 C 84 % 1009,4 hPa 0,0 l/m 0,8 km/h (0 Bft) O-NO 0,28 h 0,000 mm 85 W/m 15,2 C 18,0 C 2,2 km/h (1 Bft)
12/08/2007 08:00 20,4 C 78 % 1009,5 hPa 0,0 l/m 1,4 km/h (1 Bft) E-SE 0,93 h 0,051 mm 263 W/m 16,5 C 20,4 C 3,3 km/h (1 Bft)
12/08/2007 09:00 22,4 C 72 % 1009,6 hPa 0,0 l/m 5,1 km/h (1 Bft) S 0,97 h 0,152 mm 469 W/m 17,1 C 22,4 C 8,0 km/h (2 Bft)
12/08/2007 10:00 23,8 C 68 % 1009,5 hPa 0,0 l/m 8,0 km/h (2 Bft) E 1,00 h 0,305 mm 633 W/m 17,5 C 23,8 C 11,8 km/h (2 Bft)
12/08/2007 11:00 24,6 C 66 % 1009,4 hPa 0,0 l/m 11,4 km/h (2 Bft) E 0,82 h 0,432 mm 618 W/m 17,7 C 24,6 C 16,6 km/h (3 Bft)
12/08/2007 12:00 24,5 C 68 % 1009,4 hPa 0,0 l/m 10,2 km/h (2 Bft) E 0,75 h 0,457 mm 690 W/m 18,1 C 24,5 C 15,9 km/h (3 Bft)
12/08/2007 13:00 23,9 C 71 % 1009,4 hPa 0,0 l/m 9,9 km/h (2 Bft) E 0,10 h 0,483 mm 362 W/m 18,2 C 23,9 C 14,4 km/h (3 Bft)
12/08/2007 14:00 25,0 C 66 % 1009,3 hPa 0,0 l/m 9,0 km/h (2 Bft) E 0,47 h 0,279 mm 544 W/m 18,1 C 25,0 C 14,1 km/h (3 Bft)
12/08/2007 15:00 25,6 C 69 % 1008,9 hPa 0,0 l/m 11,1 km/h (2 Bft) E 0,67 h 0,432 mm 591 W/m 19,4 C 25,6 C 15,7 km/h (3 Bft)
12/08/2007 16:00 25,0 C 71 % 1008,8 hPa 0,0 l/m 9,5 km/h (2 Bft) E 0,75 h 0,432 mm 530 W/m 19,2 C 25,0 C 15,1 km/h (3 Bft)
12/08/2007 17:00 24,3 C 73 % 1008,5 hPa 0,0 l/m 8,9 km/h (2 Bft) E 0,57 h 0,381 mm 371 W/m 19,1 C 24,3 C 13,9 km/h (3 Bft)
12/08/2007 18:00 22,5 C 79 % 1008,6 hPa 0,0 l/m 8,0 km/h (2 Bft) E 0,00 h 0,279 mm 115 W/m 18,8 C 22,5 C 11,8 km/h (2 Bft)
12/08/2007 19:00 21,8 C 84 % 1008,4 hPa 0,0 l/m 6,0 km/h (2 Bft) E 0,03 h 0,102 mm 58 W/m 19,0 C 21,8 C 8,9 km/h (2 Bft)
12/08/2007 20:00 21,0 C 87 % 1008,3 hPa 0,0 l/m 4,5 km/h (1 Bft) E-NE 0,02 h 0,051 mm 19 W/m 18,7 C 21,0 C 6,8 km/h (2 Bft)
12/08/2007 21:00 20,0 C 90 % 1008,7 hPa 0,0 l/m 1,9 km/h (1 Bft) NE 0,00 h 0,025 mm 0 W/m 18,2 C 20,0 C 3,7 km/h (1 Bft)
12/08/2007 22:00 19,5 C 91 % 1009,3 hPa 0,0 l/m 1,0 km/h (0 Bft) NE 0,00 h 0,000 mm 0 W/m 18,1 C 19,5 C 2,4 km/h (1 Bft)
12/08/2007 23:00 19,2 C 92 % 1009,3 hPa 0,0 l/m 1,5 km/h (1 Bft) NE 0,00 h 0,025 mm 0 W/m 18,0 C 19,2 C 2,1 km/h (1 Bft)
Min-Date _ 09/08/07 08/08/07 10/08/07 - 06/08/07 - - - - 09/08/07 09/08/07 06/08/07
_ Min-Heure 03:59 17:52 01:00 - 00:00 - - - - 07:06 03:59 00:11
Minimum _ 15,7 C 25 % 1004,0 hPa - 0,0 km/h (0 Bft) - - - - 4,3 C 15,7 C 0,0 km/h (0 Bft)
Max-Date _ 06/08/07 08/08/07 06/08/07 06/08/07 08/08/07 - 06/08/07 08/08/07 08/08/07 07/08/07 06/08/07 08/08/07
_ Max-Heure 13:17 00:45 00:00 00:00 17:26 - 06:36 16:00 15:00 18:30 13:17 17:26
Maximum _ 30,2 C 93 % 1012,4 hPa 0,0 l/m 43,5 km/h
SO (6 Bft)
- 0,02 h 0,711 mm 1095 W/m 21,3 C 30,2 C 53,1 km/h
SO (7 Bft)
Moyenne _ 22,3 C 63 % 1007,7 hPa #0,0 l/m 6,2 km/h (2 Bft) E #62:29 h #35,422 mm 386 W/m 14,3 C 22,3 C 9,4 km/h (2 Bft)
Roquefort les pins